createdAt,value
2017-12-27T00:01:53.796Z,3.40
2017-12-27T00:04:27.490Z,3.30
2017-12-27T00:07:01.920Z,3.20
2017-12-27T00:09:35.641Z,3.20
2017-12-27T00:12:09.444Z,3.20
2017-12-27T00:14:43.297Z,3.20
2017-12-27T00:17:17.023Z,3.20
2017-12-27T00:19:50.750Z,3.20
2017-12-27T00:22:24.445Z,3.20
2017-12-27T00:24:58.281Z,3.20
2017-12-27T00:27:31.973Z,3.20
2017-12-27T00:30:05.718Z,3.10
2017-12-27T00:32:33.349Z,3.10
2017-12-27T00:35:01.497Z,3.10
2017-12-27T00:37:30.386Z,3.10
2017-12-27T00:39:58.549Z,3.00
2017-12-27T00:42:27.436Z,3.00
2017-12-27T00:44:55.569Z,3.00
2017-12-27T00:47:23.720Z,3.00
2017-12-27T00:49:51.856Z,3.00
2017-12-27T00:52:20.009Z,3.00
2017-12-27T00:54:48.129Z,3.00
2017-12-27T00:57:16.280Z,2.90
2017-12-27T00:59:45.164Z,2.90
2017-12-27T01:02:13.313Z,2.90
2017-12-27T01:04:41.438Z,2.80
2017-12-27T01:07:09.589Z,2.80
2017-12-27T01:09:37.713Z,2.80
2017-12-27T01:12:05.901Z,2.80
2017-12-27T01:14:34.024Z,2.80
2017-12-27T01:17:02.173Z,2.70
2017-12-27T01:19:30.297Z,2.70
2017-12-27T01:21:58.453Z,2.60
2017-12-27T01:24:26.577Z,2.60
2017-12-27T01:26:54.742Z,2.60
2017-12-27T01:29:22.865Z,2.60
2017-12-27T01:31:51.001Z,2.60
2017-12-27T01:34:19.128Z,2.60
2017-12-27T01:36:47.276Z,2.60
2017-12-27T01:39:16.168Z,2.60
2017-12-27T01:41:44.319Z,2.50
2017-12-27T01:44:12.444Z,2.60
2017-12-27T01:46:40.588Z,2.60
2017-12-27T01:49:08.713Z,2.60
2017-12-27T01:51:36.870Z,2.60
2017-12-27T01:54:04.994Z,2.60
2017-12-27T01:56:33.913Z,2.50
2017-12-27T01:59:02.038Z,2.50
2017-12-27T02:01:30.196Z,2.60
2017-12-27T02:03:58.322Z,2.60
2017-12-27T02:06:26.449Z,2.60
2017-12-27T02:08:54.597Z,2.60
2017-12-27T02:11:22.715Z,2.60
2017-12-27T02:13:50.880Z,2.60
2017-12-27T02:16:19.005Z,2.60
2017-12-27T02:18:47.158Z,2.60
2017-12-27T02:21:15.301Z,2.60
2017-12-27T02:23:43.452Z,2.70
2017-12-27T02:26:11.578Z,2.60
2017-12-27T02:28:39.725Z,2.70
2017-12-27T02:31:07.859Z,2.60
2017-12-27T02:33:36.002Z,2.70
2017-12-27T02:36:04.129Z,2.70
2017-12-27T02:38:44.126Z,2.70
2017-12-27T02:41:12.254Z,2.70
2017-12-27T02:43:40.398Z,2.70
2017-12-27T02:46:08.516Z,2.70
2017-12-27T02:48:36.670Z,2.70
2017-12-27T02:51:04.793Z,2.70
2017-12-27T02:53:32.946Z,2.70
2017-12-27T02:56:01.075Z,2.70
2017-12-27T02:58:29.221Z,2.70
2017-12-27T03:00:57.350Z,2.70
2017-12-27T03:03:25.493Z,2.70
2017-12-27T03:05:53.613Z,2.70
2017-12-27T03:08:21.769Z,2.70
2017-12-27T03:10:49.887Z,2.70
2017-12-27T03:13:18.040Z,2.70
2017-12-27T03:15:46.921Z,2.70
2017-12-27T03:18:15.068Z,2.70
2017-12-27T03:20:43.192Z,2.70
2017-12-27T03:23:11.345Z,2.70
2017-12-27T03:25:39.464Z,2.70
2017-12-27T03:28:07.618Z,2.70
2017-12-27T03:30:35.737Z,2.60
2017-12-27T03:33:03.892Z,2.60
2017-12-27T03:35:32.018Z,2.60
2017-12-27T03:38:00.165Z,2.60
2017-12-27T03:40:28.288Z,2.60
2017-12-27T03:42:56.470Z,2.60
2017-12-27T03:45:24.589Z,2.60
2017-12-27T03:47:52.744Z,2.50
2017-12-27T03:50:20.863Z,2.50
2017-12-27T03:52:49.009Z,2.50
2017-12-27T03:55:17.139Z,2.50
2017-12-27T03:57:45.287Z,2.60
2017-12-27T04:00:13.410Z,2.60
2017-12-27T04:02:41.562Z,2.60
2017-12-27T04:05:09.683Z,2.60
2017-12-27T04:07:38.602Z,2.70
2017-12-27T04:10:06.721Z,2.70
2017-12-27T04:12:34.874Z,2.70
2017-12-27T04:15:03.001Z,2.80
2017-12-27T04:17:31.145Z,2.80
2017-12-27T04:19:59.263Z,2.80
2017-12-27T04:22:27.418Z,2.80
2017-12-27T04:24:56.304Z,2.90
2017-12-27T04:27:24.457Z,2.80
2017-12-27T04:29:52.584Z,2.80
2017-12-27T04:32:20.708Z,2.80
2017-12-27T04:34:48.860Z,2.80
2017-12-27T04:37:16.990Z,2.80
2017-12-27T04:39:45.136Z,2.70
2017-12-27T04:42:13.264Z,2.70
2017-12-27T04:44:41.412Z,2.70
2017-12-27T04:47:09.535Z,2.70
2017-12-27T04:49:37.676Z,2.70
2017-12-27T04:52:05.805Z,2.70
2017-12-27T04:54:33.958Z,2.60
2017-12-27T04:57:02.084Z,2.60
2017-12-27T04:59:30.234Z,2.60
2017-12-27T05:01:58.353Z,2.60
2017-12-27T05:04:26.507Z,2.60
2017-12-27T05:06:54.638Z,2.60
2017-12-27T05:09:22.785Z,2.60
2017-12-27T05:11:50.909Z,2.60
2017-12-27T05:14:19.052Z,2.60
2017-12-27T05:16:47.176Z,2.60
2017-12-27T05:19:15.321Z,2.60
2017-12-27T05:21:43.449Z,2.60
2017-12-27T05:24:11.607Z,2.60
2017-12-27T05:26:39.724Z,2.60
2017-12-27T05:29:07.873Z,2.60
2017-12-27T05:31:35.998Z,2.60
2017-12-27T05:34:04.150Z,2.60
2017-12-27T05:36:32.272Z,2.60
2017-12-27T05:39:00.425Z,2.60
2017-12-27T05:41:28.601Z,2.60
2017-12-27T05:43:56.721Z,2.60
2017-12-27T05:46:24.850Z,2.60
2017-12-27T05:48:52.992Z,2.60
2017-12-27T05:51:21.884Z,2.60
2017-12-27T05:53:50.042Z,2.60
2017-12-27T05:56:18.171Z,2.60
2017-12-27T05:58:46.314Z,2.60
2017-12-27T06:01:14.428Z,2.50
2017-12-27T06:03:42.572Z,2.50
2017-12-27T06:06:10.699Z,2.50
2017-12-27T06:08:38.844Z,2.40
2017-12-27T06:11:06.973Z,2.40
2017-12-27T06:13:35.119Z,2.30
2017-12-27T06:16:03.241Z,2.20
2017-12-27T06:18:31.393Z,2.20
2017-12-27T06:21:00.277Z,2.20
2017-12-27T06:23:28.430Z,2.20
2017-12-27T06:25:56.550Z,2.20
2017-12-27T06:28:24.708Z,2.10
2017-12-27T06:30:52.824Z,2.10
2017-12-27T06:33:20.986Z,2.10
2017-12-27T06:35:49.114Z,2.10
2017-12-27T06:38:17.234Z,2.10
2017-12-27T06:40:45.381Z,2.10
2017-12-27T06:43:13.510Z,2.00
2017-12-27T06:45:41.662Z,2.00
2017-12-27T06:48:09.788Z,2.00
2017-12-27T06:50:38.701Z,2.00
2017-12-27T06:53:06.822Z,1.90
2017-12-27T06:55:34.971Z,1.90
2017-12-27T06:58:03.089Z,1.90
2017-12-27T07:00:31.237Z,1.90
2017-12-27T07:02:59.370Z,1.80
2017-12-27T07:05:27.530Z,1.80
2017-12-27T07:07:55.648Z,1.70
2017-12-27T07:10:23.791Z,1.70
2017-12-27T07:12:51.921Z,1.60
2017-12-27T07:15:20.075Z,1.60
2017-12-27T07:17:48.198Z,1.50
2017-12-27T07:20:16.351Z,1.50
2017-12-27T07:22:44.534Z,1.40
2017-12-27T07:25:12.684Z,1.40
2017-12-27T07:27:40.807Z,1.40
2017-12-27T07:30:08.960Z,1.40
2017-12-27T07:32:37.086Z,1.40
2017-12-27T07:35:05.240Z,1.40
2017-12-27T07:37:33.372Z,1.40
2017-12-27T07:40:02.292Z,1.50
2017-12-27T07:42:30.420Z,1.50
2017-12-27T07:44:58.575Z,1.50
2017-12-27T07:47:26.705Z,1.50
2017-12-27T07:49:54.848Z,1.60
2017-12-27T07:52:22.997Z,1.60
2017-12-27T07:54:51.154Z,1.60
2017-12-27T07:57:19.276Z,1.70
2017-12-27T07:59:47.450Z,1.70
2017-12-27T08:02:15.574Z,1.70
2017-12-27T08:04:43.725Z,1.80
2017-12-27T08:07:11.858Z,1.80
2017-12-27T08:09:40.013Z,1.80
2017-12-27T08:12:08.148Z,1.90
2017-12-27T08:14:36.285Z,2.00
2017-12-27T08:17:05.220Z,2.10
2017-12-27T08:19:33.373Z,2.10
2017-12-27T08:22:01.493Z,2.10
2017-12-27T08:24:29.640Z,2.20
2017-12-27T08:26:57.769Z,2.20
2017-12-27T08:29:25.927Z,2.20
2017-12-27T08:31:54.046Z,2.30
2017-12-27T08:34:22.197Z,2.30
2017-12-27T08:36:50.326Z,2.30
2017-12-27T08:39:18.473Z,2.40
2017-12-27T08:41:46.599Z,2.50
2017-12-27T08:44:14.770Z,2.50
2017-12-27T08:46:42.909Z,2.60
2017-12-27T08:49:11.059Z,2.70
2017-12-27T08:51:40.084Z,2.80
2017-12-27T08:54:08.218Z,2.90
2017-12-27T08:56:36.373Z,3.00
2017-12-27T08:59:04.489Z,3.00
2017-12-27T09:01:32.643Z,3.10
2017-12-27T09:04:00.775Z,3.10
2017-12-27T09:06:28.925Z,3.20
2017-12-27T09:08:57.049Z,3.20
2017-12-27T09:11:25.196Z,3.30
2017-12-27T09:13:53.317Z,3.30
2017-12-27T09:16:21.604Z,3.40
2017-12-27T09:18:49.736Z,3.40
2017-12-27T09:21:17.876Z,3.50
2017-12-27T09:23:45.997Z,3.50
2017-12-27T09:26:14.150Z,3.60
2017-12-27T09:28:42.273Z,3.60
2017-12-27T09:31:10.424Z,3.60
2017-12-27T09:33:39.317Z,3.70
2017-12-27T09:36:07.493Z,3.70
2017-12-27T09:38:35.621Z,3.80
2017-12-27T09:41:03.768Z,3.80
2017-12-27T09:43:31.884Z,3.90
2017-12-27T09:46:00.039Z,3.90
2017-12-27T09:48:28.156Z,4.00
2017-12-27T09:50:56.321Z,4.10
2017-12-27T09:53:24.455Z,4.20
2017-12-27T09:55:52.606Z,4.20
2017-12-27T09:58:20.737Z,4.30
2017-12-27T10:00:48.889Z,4.30
2017-12-27T10:03:17.790Z,4.40
2017-12-27T10:05:45.941Z,4.40
2017-12-27T10:08:14.067Z,4.50
2017-12-27T10:10:42.219Z,4.50
2017-12-27T10:13:10.541Z,4.60
2017-12-27T10:15:38.789Z,4.70
2017-12-27T10:18:06.994Z,4.70
2017-12-27T10:20:35.145Z,4.80
2017-12-27T10:23:03.269Z,4.80
2017-12-27T10:25:31.495Z,4.80
2017-12-27T10:27:59.635Z,4.90
2017-12-27T10:30:27.807Z,4.90
2017-12-27T10:32:59.851Z,5.00
2017-12-27T10:35:28.001Z,5.10
2017-12-27T10:37:56.153Z,5.20
2017-12-27T10:40:24.378Z,5.30
2017-12-27T10:42:52.502Z,5.50
2017-12-27T10:45:20.653Z,5.60
2017-12-27T10:47:48.772Z,5.80
2017-12-27T10:50:16.933Z,5.90
2017-12-27T10:52:45.055Z,6.10
2017-12-27T10:55:13.201Z,6.30
2017-12-27T10:57:41.325Z,6.50
2017-12-27T11:00:09.476Z,6.70
2017-12-27T11:02:37.598Z,6.80
2017-12-27T11:05:05.750Z,7.00
2017-12-27T11:07:33.878Z,7.00
2017-12-27T11:10:02.033Z,7.10
2017-12-27T11:12:30.164Z,7.10
2017-12-27T11:14:58.311Z,7.10
2017-12-27T11:17:27.206Z,7.20
2017-12-27T11:19:55.357Z,7.20
2017-12-27T11:22:23.474Z,7.10
2017-12-27T11:24:51.626Z,7.10
2017-12-27T11:27:20.545Z,7.00
2017-12-27T11:29:48.680Z,7.00
2017-12-27T11:32:17.592Z,6.80
2017-12-27T11:34:45.718Z,6.90
2017-12-27T11:37:13.873Z,6.80
2017-12-27T11:39:42.001Z,6.70
2017-12-27T11:42:10.158Z,6.60
2017-12-27T11:44:38.277Z,6.50
2017-12-27T11:47:06.438Z,6.40
2017-12-27T11:49:34.570Z,6.40
2017-12-27T11:52:02.717Z,6.40
2017-12-27T11:54:30.846Z,6.40
2017-12-27T11:56:58.992Z,6.40
2017-12-27T11:59:27.112Z,6.40
2017-12-27T12:01:55.278Z,6.50
2017-12-27T12:04:23.404Z,6.50
2017-12-27T12:06:51.550Z,6.50
2017-12-27T12:09:19.678Z,6.50
2017-12-27T12:11:47.889Z,6.50
2017-12-27T12:14:15.994Z,6.60
2017-12-27T12:16:44.141Z,6.60
2017-12-27T12:19:12.266Z,6.70
2017-12-27T12:21:41.196Z,6.70
2017-12-27T12:24:09.321Z,6.70
2017-12-27T12:26:38.236Z,6.70
2017-12-27T12:29:06.357Z,6.70
2017-12-27T12:31:34.529Z,6.70
2017-12-27T12:34:02.656Z,6.70
2017-12-27T12:36:30.807Z,6.60
2017-12-27T12:38:59.705Z,6.60
2017-12-27T12:41:27.869Z,6.60
2017-12-27T12:43:56.021Z,6.50
2017-12-27T12:46:24.190Z,6.50
2017-12-27T12:48:52.330Z,6.50
2017-12-27T12:51:21.310Z,6.40
2017-12-27T12:53:49.437Z,6.40
2017-12-27T12:56:17.593Z,6.40
2017-12-27T12:58:45.714Z,6.30
2017-12-27T13:01:14.638Z,6.30
2017-12-27T13:03:42.768Z,6.30
2017-12-27T13:06:10.929Z,6.30
2017-12-27T13:08:39.054Z,6.30
2017-12-27T13:11:07.207Z,6.30
2017-12-27T13:13:35.333Z,6.20
2017-12-27T13:16:03.496Z,6.20
2017-12-27T13:18:31.620Z,6.10
2017-12-27T13:20:59.767Z,6.10
2017-12-27T13:23:27.889Z,6.10
2017-12-27T13:25:56.039Z,6.10
2017-12-27T13:28:24.930Z,6.10
2017-12-27T13:30:53.849Z,6.00
2017-12-27T13:33:21.972Z,6.00
2017-12-27T13:35:50.124Z,6.00
2017-12-27T13:38:18.251Z,6.00
2017-12-27T13:40:46.405Z,6.00
2017-12-27T13:43:14.522Z,6.00
2017-12-27T13:45:42.674Z,6.00
2017-12-27T13:48:10.801Z,6.00
2017-12-27T13:50:38.959Z,5.90
2017-12-27T13:53:07.074Z,5.90
2017-12-27T13:55:35.220Z,5.90
2017-12-27T13:58:03.354Z,5.90
2017-12-27T14:00:31.489Z,5.80
2017-12-27T14:03:00.405Z,5.70
2017-12-27T14:05:28.563Z,5.70
2017-12-27T14:07:57.477Z,5.70
2017-12-27T14:10:25.593Z,5.70
2017-12-27T14:12:53.745Z,5.60
2017-12-27T14:15:21.862Z,5.60
2017-12-27T14:17:50.022Z,5.60
2017-12-27T14:20:18.149Z,5.60
2017-12-27T14:22:46.296Z,5.50
2017-12-27T14:25:14.427Z,5.60
2017-12-27T14:27:42.573Z,5.50
2017-12-27T14:30:10.699Z,5.50
2017-12-27T14:32:38.853Z,5.50
2017-12-27T14:35:06.973Z,5.40
2017-12-27T14:37:35.120Z,5.40
2017-12-27T14:40:03.242Z,5.40
2017-12-27T14:42:31.390Z,5.40
2017-12-27T14:44:59.536Z,5.30
2017-12-27T14:47:27.682Z,5.30
2017-12-27T14:49:55.809Z,5.30
2017-12-27T14:52:23.962Z,5.20
2017-12-27T14:54:52.081Z,5.20
2017-12-27T14:57:20.240Z,5.20
2017-12-27T14:59:48.361Z,5.10
2017-12-27T15:02:16.519Z,5.10
2017-12-27T15:04:44.650Z,5.10
2017-12-27T15:07:12.793Z,5.00
2017-12-27T15:09:40.929Z,5.00
2017-12-27T15:12:09.085Z,4.90
2017-12-27T15:14:37.208Z,4.90
2017-12-27T15:17:05.355Z,4.90
2017-12-27T15:19:33.481Z,4.90
2017-12-27T15:22:01.636Z,4.90
2017-12-27T15:24:29.756Z,4.90
2017-12-27T15:26:57.918Z,4.90
2017-12-27T15:29:26.038Z,4.90
2017-12-27T15:31:54.188Z,4.90
2017-12-27T15:34:22.313Z,4.90
2017-12-27T15:36:51.223Z,4.80
2017-12-27T15:39:19.352Z,4.80
2017-12-27T15:41:47.514Z,4.80
2017-12-27T15:44:15.642Z,4.80
2017-12-27T15:46:43.802Z,4.70
2017-12-27T15:49:12.711Z,4.70
2017-12-27T15:51:40.864Z,4.60
2017-12-27T15:54:09.765Z,4.60
2017-12-27T15:56:37.948Z,4.60
2017-12-27T15:59:06.174Z,4.60
2017-12-27T16:01:34.324Z,4.50
2017-12-27T16:04:02.462Z,4.50
2017-12-27T16:06:30.644Z,4.50
2017-12-27T16:08:58.821Z,4.40
2017-12-27T16:11:27.021Z,4.40
2017-12-27T16:13:55.187Z,4.40
2017-12-27T16:16:23.332Z,4.40
2017-12-27T16:18:51.503Z,4.30
2017-12-27T16:21:19.640Z,4.20
2017-12-27T16:23:47.794Z,4.20
2017-12-27T16:26:15.909Z,4.20
2017-12-27T16:28:44.077Z,4.20
2017-12-27T16:31:12.979Z,4.20
2017-12-27T16:33:41.129Z,4.20
2017-12-27T16:36:09.259Z,4.20
2017-12-27T16:38:37.488Z,4.20
2017-12-27T16:41:05.639Z,4.20
2017-12-27T16:43:33.793Z,4.20
2017-12-27T16:46:01.928Z,4.20
2017-12-27T16:48:30.069Z,4.20
2017-12-27T16:50:58.207Z,4.20
2017-12-27T16:53:26.409Z,4.20
2017-12-27T16:55:54.530Z,4.20
2017-12-27T16:58:22.676Z,4.20
2017-12-27T17:00:51.583Z,4.30
2017-12-27T17:03:19.728Z,4.30
2017-12-27T17:05:47.858Z,4.30
2017-12-27T17:08:16.785Z,4.30
2017-12-27T17:10:44.910Z,4.20
2017-12-27T17:13:13.125Z,4.30
2017-12-27T17:15:41.252Z,4.30
2017-12-27T17:18:09.418Z,4.30
2017-12-27T17:20:37.572Z,4.30
2017-12-27T17:23:06.504Z,4.30
2017-12-27T17:25:34.755Z,4.30
2017-12-27T17:28:02.912Z,4.30
2017-12-27T17:30:31.053Z,4.30
2017-12-27T17:32:59.306Z,4.30
2017-12-27T17:35:27.871Z,4.30
2017-12-27T17:37:56.142Z,4.30
2017-12-27T17:40:24.266Z,4.30
2017-12-27T17:42:52.706Z,4.30
2017-12-27T17:45:20.908Z,4.30
2017-12-27T17:47:49.086Z,4.30
2017-12-27T17:50:17.394Z,4.30
2017-12-27T17:52:45.575Z,4.30
2017-12-27T17:55:14.572Z,4.30
2017-12-27T17:57:43.501Z,4.30
2017-12-27T18:00:11.639Z,4.30
2017-12-27T18:02:40.802Z,4.30
2017-12-27T18:05:09.140Z,4.30
2017-12-27T18:07:37.568Z,4.30
2017-12-27T18:10:06.127Z,4.40
2017-12-27T18:12:34.666Z,4.40
2017-12-27T18:15:03.115Z,4.50
2017-12-27T18:17:31.537Z,4.50
2017-12-27T18:19:59.752Z,4.50
2017-12-27T18:22:27.921Z,4.60
2017-12-27T18:24:56.469Z,4.60
2017-12-27T18:27:24.664Z,4.60
2017-12-27T18:29:52.907Z,4.60
2017-12-27T18:32:21.081Z,4.70
2017-12-27T18:34:49.473Z,4.70
2017-12-27T18:37:18.127Z,4.70
2017-12-27T18:39:47.133Z,4.70
2017-12-27T18:42:16.179Z,4.80
2017-12-27T18:44:44.429Z,4.70
2017-12-27T18:47:12.600Z,4.80
2017-12-27T18:49:40.807Z,4.80
2017-12-27T18:52:08.925Z,4.80
2017-12-27T18:54:37.110Z,4.70
2017-12-27T18:57:05.236Z,4.70
2017-12-27T18:59:33.389Z,4.70
2017-12-27T19:02:01.535Z,4.70
2017-12-27T19:04:29.750Z,4.70
2017-12-27T19:06:57.881Z,4.70
2017-12-27T19:09:26.120Z,4.60
2017-12-27T19:11:54.247Z,4.60
2017-12-27T19:14:22.418Z,4.60
2017-12-27T19:16:50.572Z,4.60
2017-12-27T19:19:19.499Z,4.60
2017-12-27T19:21:47.622Z,4.60
2017-12-27T19:24:15.786Z,4.60
2017-12-27T19:26:43.908Z,4.60
2017-12-27T19:29:12.114Z,4.60
2017-12-27T19:31:40.236Z,4.60
2017-12-27T19:34:08.381Z,4.60
2017-12-27T19:36:36.501Z,4.60
2017-12-27T19:39:04.666Z,4.60
2017-12-27T19:41:32.804Z,4.60
2017-12-27T19:44:00.959Z,4.60
2017-12-27T19:46:29.088Z,4.60
2017-12-27T19:48:57.239Z,4.60
2017-12-27T19:51:26.129Z,4.60
2017-12-27T19:53:54.297Z,4.60
2017-12-27T19:56:23.200Z,4.60
2017-12-27T19:58:51.334Z,4.60
2017-12-27T20:01:19.499Z,4.60
2017-12-27T20:03:47.636Z,4.60
2017-12-27T20:06:15.786Z,4.50
2017-12-27T20:08:43.897Z,4.50
2017-12-27T20:11:12.065Z,4.50
2017-12-27T20:13:40.184Z,4.50
2017-12-27T20:16:08.336Z,4.50
2017-12-27T20:18:36.469Z,4.40
2017-12-27T20:21:04.625Z,4.40
2017-12-27T20:23:33.594Z,4.40
2017-12-27T20:26:01.796Z,4.40
2017-12-27T20:28:29.964Z,4.40
2017-12-27T20:30:58.099Z,4.40
2017-12-27T20:33:26.273Z,4.30
2017-12-27T20:35:54.402Z,4.30
2017-12-27T20:38:22.584Z,4.30
2017-12-27T20:40:50.739Z,4.30
2017-12-27T20:43:19.745Z,4.30
2017-12-27T20:45:48.623Z,4.30
2017-12-27T20:48:16.872Z,4.20
2017-12-27T20:50:45.019Z,4.20
2017-12-27T20:53:13.184Z,4.20
2017-12-27T20:55:41.332Z,4.20
2017-12-27T20:58:09.509Z,4.20
2017-12-27T21:00:37.650Z,4.20
2017-12-27T21:03:06.226Z,4.20
2017-12-27T21:05:34.395Z,4.20
2017-12-27T21:08:02.529Z,4.20
2017-12-27T21:10:30.680Z,4.20
2017-12-27T21:12:58.812Z,4.20
2017-12-27T21:15:27.083Z,4.20
2017-12-27T21:17:55.234Z,4.10
2017-12-27T21:20:23.395Z,4.10
2017-12-27T21:22:51.537Z,4.10
2017-12-27T21:25:20.478Z,4.10
2017-12-27T21:27:48.707Z,4.10
2017-12-27T21:30:16.876Z,4.10
2017-12-27T21:32:45.011Z,4.10
2017-12-27T21:35:13.168Z,4.10
2017-12-27T21:37:41.305Z,4.10
2017-12-27T21:40:09.470Z,4.10
2017-12-27T21:42:37.623Z,4.10
2017-12-27T21:45:05.776Z,4.10
2017-12-27T21:47:39.526Z,4.10
2017-12-27T21:50:07.802Z,4.10
2017-12-27T21:52:35.945Z,4.00
2017-12-27T21:55:04.108Z,4.00
2017-12-27T21:57:32.241Z,3.90
2017-12-27T22:00:06.083Z,3.90
2017-12-27T22:02:34.242Z,3.90
2017-12-27T22:05:02.432Z,4.00
2017-12-27T22:07:30.574Z,4.00
2017-12-27T22:09:58.733Z,4.00
2017-12-27T22:12:26.976Z,4.00
2017-12-27T22:14:55.142Z,4.00
2017-12-27T22:17:23.306Z,4.00
2017-12-27T22:19:51.480Z,4.10
2017-12-27T22:22:19.609Z,4.10
2017-12-27T22:24:47.820Z,4.10
2017-12-27T22:27:15.960Z,4.10
2017-12-27T22:29:44.142Z,4.10
2017-12-27T22:32:12.341Z,4.10
2017-12-27T22:34:40.520Z,4.10
2017-12-27T22:37:08.648Z,4.10
2017-12-27T22:39:36.807Z,4.10
2017-12-27T22:42:05.758Z,4.00
2017-12-27T22:44:33.960Z,4.00
2017-12-27T22:47:02.882Z,4.00
2017-12-27T22:49:31.034Z,4.00
2017-12-27T22:51:59.976Z,4.00
2017-12-27T22:54:28.133Z,4.00
2017-12-27T22:56:56.267Z,3.90
2017-12-27T22:59:24.397Z,3.90
2017-12-27T23:01:52.553Z,4.00
2017-12-27T23:04:20.684Z,3.90
2017-12-27T23:06:49.634Z,3.90
2017-12-27T23:09:17.785Z,4.00
2017-12-27T23:11:45.929Z,4.00
2017-12-27T23:14:14.121Z,4.00
2017-12-27T23:16:42.272Z,4.00
2017-12-27T23:19:11.172Z,4.00
2017-12-27T23:21:39.330Z,4.00
2017-12-27T23:24:07.480Z,4.10
2017-12-27T23:26:35.654Z,4.10
2017-12-27T23:29:03.818Z,4.10
2017-12-27T23:31:31.969Z,4.10
2017-12-27T23:34:00.105Z,4.10
2017-12-27T23:36:28.261Z,4.10
2017-12-27T23:38:56.383Z,4.10
2017-12-27T23:41:25.413Z,4.10
2017-12-27T23:43:53.544Z,4.10
2017-12-27T23:46:21.711Z,4.10
2017-12-27T23:48:49.838Z,4.10
2017-12-27T23:51:18.000Z,4.10
2017-12-27T23:53:46.142Z,4.00
2017-12-27T23:56:14.270Z,4.00
2017-12-27T23:58:42.433Z,4.00
